createdAt,value
2023-02-16T00:01:23.850Z,5.00
2023-02-16T00:03:54.216Z,5.00
2023-02-16T00:06:22.583Z,5.10
2023-02-16T00:08:52.335Z,5.20
2023-02-16T00:11:41.938Z,5.30
2023-02-16T00:14:12.162Z,5.10
2023-02-16T00:16:40.346Z,5.10
2023-02-16T00:19:20.285Z,5.30
2023-02-16T00:21:48.549Z,5.40
2023-02-16T00:24:16.807Z,5.40
2023-02-16T00:26:45.469Z,4.80
2023-02-16T00:29:19.821Z,4.30
2023-02-16T00:31:47.923Z,4.10
2023-02-16T00:34:30.821Z,4.10
2023-02-16T00:36:59.782Z,4.40
2023-02-16T00:39:27.895Z,4.60
2023-02-16T00:41:58.669Z,4.80
2023-02-16T00:44:32.642Z,4.60
2023-02-16T00:47:11.845Z,4.10
2023-02-16T00:49:41.001Z,3.80
2023-02-16T00:52:30.683Z,3.30
2023-02-16T00:54:59.143Z,3.40
2023-02-16T00:57:28.564Z,3.50
2023-02-16T01:00:01.437Z,3.80
2023-02-16T01:02:30.054Z,4.00
2023-02-16T01:04:59.209Z,4.40
2023-02-16T01:07:44.776Z,4.40
2023-02-16T01:10:30.718Z,4.00
2023-02-16T01:12:58.621Z,3.80
2023-02-16T01:15:27.406Z,4.20
2023-02-16T01:17:55.327Z,4.40
2023-02-16T01:20:26.882Z,4.60
2023-02-16T01:22:54.724Z,4.80
2023-02-16T01:25:22.714Z,4.90
2023-02-16T01:27:51.336Z,5.00
2023-02-16T01:30:21.525Z,5.10
2023-02-16T01:32:51.834Z,5.10
2023-02-16T01:35:20.061Z,4.90
2023-02-16T01:37:49.294Z,4.70
2023-02-16T01:40:27.539Z,4.80
2023-02-16T01:43:02.329Z,4.90
2023-02-16T01:45:36.052Z,4.50
2023-02-16T01:48:05.910Z,4.60
2023-02-16T01:50:44.156Z,4.50
2023-02-16T01:53:20.423Z,4.60
2023-02-16T01:55:50.646Z,4.80
2023-02-16T01:58:30.449Z,5.00
2023-02-16T02:01:34.017Z,5.10
2023-02-16T02:04:19.854Z,5.10
2023-02-16T02:06:48.550Z,4.90
2023-02-16T02:09:24.030Z,4.80
2023-02-16T02:11:58.446Z,4.80
2023-02-16T02:14:29.802Z,5.00
2023-02-16T02:16:59.613Z,4.90
2023-02-16T02:19:27.424Z,5.00
2023-02-16T02:22:40.813Z,5.00
2023-02-16T02:25:36.843Z,5.10
2023-02-16T02:28:15.714Z,5.10
2023-02-16T02:30:50.344Z,4.90
2023-02-16T02:33:34.099Z,4.80
2023-02-16T02:36:12.262Z,4.90
2023-02-16T02:38:50.742Z,5.00
2023-02-16T02:41:45.546Z,5.00
2023-02-16T02:44:20.734Z,4.90
2023-02-16T02:47:08.738Z,4.90
2023-02-16T02:49:36.836Z,4.80
2023-02-16T02:52:05.141Z,4.90
2023-02-16T02:54:52.568Z,4.90
2023-02-16T02:57:43.465Z,4.70
2023-02-16T03:00:33.604Z,4.60
2023-02-16T03:03:06.112Z,4.70
2023-02-16T03:05:36.064Z,4.80
2023-02-16T03:08:14.227Z,4.90
2023-02-16T03:11:02.432Z,4.90
2023-02-16T03:13:34.688Z,4.70
2023-02-16T03:16:07.225Z,4.50
2023-02-16T03:18:54.510Z,4.50
2023-02-16T03:21:40.043Z,4.70
2023-02-16T03:24:30.406Z,4.60
2023-02-16T03:27:17.550Z,4.60
2023-02-16T03:29:48.078Z,4.60
2023-02-16T03:32:17.856Z,4.60
2023-02-16T03:34:45.794Z,4.70
2023-02-16T03:37:14.308Z,4.70
2023-02-16T03:39:56.662Z,4.50
2023-02-16T03:42:25.087Z,4.30
2023-02-16T03:44:53.051Z,4.40
2023-02-16T03:47:22.280Z,4.40
2023-02-16T03:49:50.310Z,4.40
2023-02-16T03:52:18.106Z,4.40
2023-02-16T03:54:45.984Z,4.50
2023-02-16T03:57:13.798Z,4.50
2023-02-16T03:59:41.559Z,4.40
2023-02-16T04:02:09.415Z,4.40
2023-02-16T04:04:39.012Z,4.50
2023-02-16T04:07:06.792Z,4.60
2023-02-16T04:09:34.587Z,4.30
2023-02-16T04:12:19.276Z,4.00
2023-02-16T04:14:47.103Z,3.90
2023-02-16T04:17:14.970Z,4.10
2023-02-16T04:19:44.139Z,4.20
2023-02-16T04:22:11.932Z,4.30
2023-02-16T04:24:39.711Z,4.40
2023-02-16T04:27:07.638Z,4.40
2023-02-16T04:29:35.558Z,4.40
2023-02-16T04:32:03.458Z,4.50
2023-02-16T04:34:31.357Z,4.40
2023-02-16T04:37:01.081Z,4.30
2023-02-16T04:39:28.949Z,3.60
2023-02-16T04:41:56.728Z,3.70
2023-02-16T04:44:24.591Z,3.80
2023-02-16T04:46:52.410Z,3.70
2023-02-16T04:49:20.227Z,3.90
2023-02-16T04:51:48.096Z,4.10
2023-02-16T04:54:17.350Z,4.30
2023-02-16T04:56:45.841Z,4.30
2023-02-16T04:59:13.776Z,4.50
2023-02-16T05:01:43.352Z,4.40
2023-02-16T05:04:11.626Z,4.40
2023-02-16T05:06:39.787Z,4.40
2023-02-16T05:09:08.559Z,4.40
2023-02-16T05:11:55.426Z,4.50
2023-02-16T05:14:44.469Z,4.30
2023-02-16T05:17:14.882Z,4.10
2023-02-16T05:19:43.913Z,4.20
2023-02-16T05:22:12.112Z,4.20
2023-02-16T05:24:40.317Z,4.10
2023-02-16T05:27:12.432Z,4.00
2023-02-16T05:29:40.277Z,4.20
2023-02-16T05:32:08.165Z,4.40
2023-02-16T05:34:36.026Z,4.20
2023-02-16T05:37:03.871Z,3.90
2023-02-16T05:39:31.659Z,3.60
2023-02-16T05:42:00.057Z,3.30
2023-02-16T05:44:29.562Z,3.10
2023-02-16T05:46:57.493Z,2.90
2023-02-16T05:49:25.636Z,2.60
2023-02-16T05:51:53.491Z,2.50
2023-02-16T05:54:21.322Z,2.20
2023-02-16T05:56:50.759Z,1.90
2023-02-16T05:59:18.917Z,1.60
2023-02-16T06:01:51.631Z,1.60
2023-02-16T06:04:20.979Z,1.50
2023-02-16T06:06:48.876Z,1.40
2023-02-16T06:09:16.763Z,1.40
2023-02-16T06:11:44.839Z,1.40
2023-02-16T06:14:16.507Z,1.40
2023-02-16T06:16:47.210Z,1.50
2023-02-16T06:19:18.282Z,1.50
2023-02-16T06:21:46.506Z,1.60
2023-02-16T06:24:15.258Z,1.40
2023-02-16T06:26:43.137Z,1.30
2023-02-16T06:29:11.436Z,1.30
2023-02-16T06:31:39.483Z,1.30
2023-02-16T06:34:07.401Z,1.30
2023-02-16T06:36:36.608Z,1.20
2023-02-16T06:39:05.009Z,1.20
2023-02-16T06:41:35.630Z,1.30
2023-02-16T06:44:05.664Z,1.30
2023-02-16T06:46:33.825Z,1.30
2023-02-16T06:49:02.134Z,1.20
2023-02-16T06:51:30.560Z,1.10
2023-02-16T06:53:59.736Z,1.20
2023-02-16T06:56:27.902Z,1.20
2023-02-16T06:58:55.958Z,1.30
2023-02-16T07:01:25.648Z,1.30
2023-02-16T07:03:54.965Z,1.40
2023-02-16T07:06:24.168Z,1.40
2023-02-16T07:08:52.106Z,1.30
2023-02-16T07:11:21.788Z,1.20
2023-02-16T07:13:50.101Z,1.10
2023-02-16T07:16:17.988Z,1.00
2023-02-16T07:18:46.508Z,1.00
2023-02-16T07:21:15.438Z,1.10
2023-02-16T07:23:43.539Z,1.20
2023-02-16T07:26:11.489Z,1.30
2023-02-16T07:28:40.739Z,1.30
2023-02-16T07:31:10.472Z,1.30
2023-02-16T07:33:38.818Z,1.30
2023-02-16T07:36:08.070Z,1.40
2023-02-16T07:38:35.953Z,1.50
2023-02-16T07:41:05.860Z,1.50
2023-02-16T07:43:36.019Z,1.50
2023-02-16T07:46:05.731Z,1.50
2023-02-16T07:48:33.612Z,1.50
2023-02-16T07:51:01.703Z,1.40
2023-02-16T07:53:29.649Z,1.50
2023-02-16T07:55:57.757Z,1.50
2023-02-16T07:58:28.358Z,1.30
2023-02-16T08:00:57.574Z,1.30
2023-02-16T08:03:27.031Z,1.20
2023-02-16T08:05:54.979Z,1.30
2023-02-16T08:08:22.804Z,1.30
2023-02-16T08:10:50.632Z,1.30
2023-02-16T08:13:18.529Z,1.20
2023-02-16T08:15:46.446Z,1.20
2023-02-16T08:18:14.275Z,1.10
2023-02-16T08:21:02.368Z,1.00
2023-02-16T08:23:31.801Z,0.90
2023-02-16T08:25:59.891Z,0.90
2023-02-16T08:28:28.887Z,1.00
2023-02-16T08:30:56.981Z,1.10
2023-02-16T08:33:25.097Z,1.10
2023-02-16T08:35:54.279Z,1.10
2023-02-16T08:38:22.734Z,0.90
2023-02-16T08:40:51.601Z,0.90
2023-02-16T08:43:19.487Z,1.00
2023-02-16T08:46:08.193Z,1.00
2023-02-16T08:48:36.512Z,0.80
2023-02-16T08:51:06.630Z,0.80
2023-02-16T08:53:35.029Z,0.70
2023-02-16T08:56:04.990Z,0.70
2023-02-16T08:58:32.987Z,0.70
2023-02-16T09:01:04.976Z,0.70
2023-02-16T09:03:33.505Z,0.70
2023-02-16T09:06:04.004Z,0.80
2023-02-16T09:08:54.059Z,0.90
2023-02-16T09:11:23.294Z,0.90
2023-02-16T09:13:51.458Z,1.00
2023-02-16T09:16:22.750Z,1.00
2023-02-16T09:19:09.189Z,0.90
2023-02-16T09:21:37.269Z,1.00
2023-02-16T09:24:25.376Z,1.10
2023-02-16T09:27:11.662Z,1.30
2023-02-16T09:29:40.396Z,1.10
2023-02-16T09:32:09.793Z,1.10
2023-02-16T09:34:38.234Z,1.10
2023-02-16T09:37:06.043Z,1.20
2023-02-16T09:39:35.208Z,1.20
2023-02-16T09:42:17.561Z,1.20
2023-02-16T09:44:54.611Z,1.30
2023-02-16T09:47:26.100Z,1.40
2023-02-16T09:49:56.841Z,1.30
2023-02-16T09:52:31.917Z,1.30
2023-02-16T09:55:03.869Z,1.20
2023-02-16T09:57:43.799Z,1.40
2023-02-16T10:00:23.331Z,1.50
2023-02-16T10:02:57.397Z,1.60
2023-02-16T10:05:48.379Z,1.70
2023-02-16T10:08:22.706Z,1.80
2023-02-16T10:11:01.725Z,1.80
2023-02-16T10:13:37.936Z,2.00
2023-02-16T10:16:30.643Z,1.90
2023-02-16T10:19:01.317Z,1.80
2023-02-16T10:21:52.432Z,1.90
2023-02-16T10:24:20.420Z,2.10
2023-02-16T10:26:58.654Z,2.20
2023-02-16T10:29:27.685Z,2.10
2023-02-16T10:32:11.637Z,1.90
2023-02-16T10:34:49.031Z,1.80
2023-02-16T10:37:24.966Z,1.80
2023-02-16T10:40:02.252Z,1.70
2023-02-16T10:42:37.929Z,1.70
2023-02-16T10:45:20.578Z,1.70
2023-02-16T10:47:48.723Z,1.70
2023-02-16T10:50:24.645Z,1.80
2023-02-16T10:52:56.878Z,1.90
2023-02-16T10:55:24.740Z,1.90
2023-02-16T10:57:56.462Z,2.00
2023-02-16T11:00:30.388Z,2.10
2023-02-16T11:03:01.886Z,2.30
2023-02-16T11:05:33.972Z,2.40
2023-02-16T11:08:03.167Z,2.40
2023-02-16T11:10:41.657Z,2.50
2023-02-16T11:13:24.661Z,2.50
2023-02-16T11:15:55.906Z,2.60
2023-02-16T11:18:33.056Z,2.60
2023-02-16T11:21:01.430Z,2.50
2023-02-16T11:23:31.611Z,2.50
2023-02-16T11:26:03.914Z,2.70
2023-02-16T11:28:35.862Z,2.80
2023-02-16T11:31:18.641Z,2.70
2023-02-16T11:33:58.416Z,2.70
2023-02-16T11:36:32.649Z,2.70
2023-02-16T11:39:04.294Z,2.70
2023-02-16T11:41:33.542Z,2.60
2023-02-16T11:44:04.540Z,2.60
2023-02-16T11:46:41.853Z,2.70
2023-02-16T11:49:23.534Z,2.80
2023-02-16T11:51:51.367Z,2.90
2023-02-16T11:54:19.778Z,2.90
2023-02-16T11:57:03.140Z,3.00
2023-02-16T11:59:37.170Z,3.40
2023-02-16T12:02:32.972Z,3.80
2023-02-16T12:05:15.292Z,4.00
2023-02-16T12:07:51.165Z,4.00
2023-02-16T12:10:23.927Z,4.10
2023-02-16T12:13:00.743Z,4.00
2023-02-16T12:15:36.856Z,4.10
2023-02-16T12:18:17.076Z,4.10
2023-02-16T12:20:53.049Z,4.00
2023-02-16T12:23:33.213Z,4.10
2023-02-16T12:26:14.786Z,4.40
2023-02-16T12:28:48.290Z,4.80
2023-02-16T12:31:27.557Z,5.00
2023-02-16T12:34:03.835Z,5.20
2023-02-16T12:36:43.254Z,5.30
2023-02-16T12:39:18.920Z,5.60
2023-02-16T12:42:04.263Z,5.90
2023-02-16T12:44:37.329Z,6.00
2023-02-16T12:47:13.536Z,5.90
2023-02-16T12:49:50.247Z,5.80
2023-02-16T12:52:29.812Z,5.90
2023-02-16T12:55:12.341Z,6.00
2023-02-16T12:57:53.004Z,6.10
2023-02-16T13:00:26.980Z,6.20
2023-02-16T13:03:00.976Z,6.10
2023-02-16T13:05:32.877Z,6.00
2023-02-16T13:08:09.342Z,6.00
2023-02-16T13:10:52.789Z,6.00
2023-02-16T13:13:25.886Z,6.00
2023-02-16T13:16:08.296Z,5.90
2023-02-16T13:18:44.940Z,5.90
2023-02-16T13:21:19.965Z,5.90
2023-02-16T13:24:08.543Z,5.90
2023-02-16T13:26:50.546Z,6.10
2023-02-16T13:29:39.418Z,6.00
2023-02-16T13:32:34.662Z,6.10
2023-02-16T13:35:22.687Z,6.10
2023-02-16T13:38:18.782Z,6.20
2023-02-16T13:41:12.608Z,6.20
2023-02-16T13:43:45.004Z,6.30
2023-02-16T13:46:19.517Z,6.30
2023-02-16T13:48:50.677Z,6.20
2023-02-16T13:51:22.218Z,6.20
2023-02-16T13:53:57.452Z,6.20
2023-02-16T13:56:36.045Z,6.30
2023-02-16T13:59:40.906Z,6.40
2023-02-16T14:02:12.665Z,6.40
2023-02-16T14:05:04.114Z,6.50
2023-02-16T14:07:38.818Z,6.60
2023-02-16T14:10:13.652Z,6.60
2023-02-16T14:12:42.185Z,6.70
2023-02-16T14:15:20.456Z,6.80
2023-02-16T14:17:48.341Z,6.80
2023-02-16T14:20:31.108Z,6.80
2023-02-16T14:23:00.938Z,6.80
2023-02-16T14:25:38.083Z,6.80
2023-02-16T14:28:27.460Z,6.80
2023-02-16T14:30:58.612Z,6.80
2023-02-16T14:33:40.562Z,6.90
2023-02-16T14:36:15.657Z,6.90
2023-02-16T14:38:49.471Z,7.00
2023-02-16T14:41:27.657Z,7.00
2023-02-16T14:44:21.668Z,7.00
2023-02-16T14:46:59.049Z,7.10
2023-02-16T14:49:48.907Z,7.00
2023-02-16T14:52:41.637Z,7.10
2023-02-16T14:55:40.556Z,7.20
2023-02-16T14:58:23.376Z,7.40
2023-02-16T15:00:54.780Z,7.40
2023-02-16T15:03:24.504Z,7.40
2023-02-16T15:05:58.121Z,7.40
2023-02-16T15:08:34.883Z,7.40
2023-02-16T15:11:15.629Z,7.40
2023-02-16T15:13:44.717Z,7.40
2023-02-16T15:16:15.770Z,7.40
2023-02-16T15:18:47.692Z,7.40
2023-02-16T15:21:20.622Z,7.30
2023-02-16T15:23:50.876Z,7.30
2023-02-16T15:26:22.710Z,7.30
2023-02-16T15:28:55.474Z,7.10
2023-02-16T15:31:30.888Z,7.00
2023-02-16T15:34:01.243Z,7.00
2023-02-16T15:36:34.633Z,6.90
2023-02-16T15:39:05.154Z,6.90
2023-02-16T15:41:36.974Z,6.90
2023-02-16T15:44:06.356Z,6.90
2023-02-16T15:46:36.022Z,6.90
2023-02-16T15:49:12.764Z,6.90
2023-02-16T15:51:41.791Z,7.00
2023-02-16T15:54:23.398Z,7.00
2023-02-16T15:56:54.158Z,7.00
2023-02-16T15:59:35.265Z,7.10
2023-02-16T16:02:11.729Z,7.10
2023-02-16T16:04:41.268Z,7.00
2023-02-16T16:07:13.490Z,7.00
2023-02-16T16:09:42.983Z,7.00
2023-02-16T16:12:14.378Z,7.00
2023-02-16T16:14:49.753Z,6.90
2023-02-16T16:17:22.513Z,7.00
2023-02-16T16:19:51.094Z,6.90
2023-02-16T16:22:35.941Z,7.00
2023-02-16T16:25:04.781Z,6.90
2023-02-16T16:27:36.552Z,6.90
2023-02-16T16:30:15.311Z,6.80
2023-02-16T16:32:43.311Z,6.70
2023-02-16T16:35:21.526Z,6.60
2023-02-16T16:37:52.193Z,6.50
2023-02-16T16:40:25.412Z,6.60
2023-02-16T16:43:15.453Z,6.50
2023-02-16T16:45:45.055Z,6.50
2023-02-16T16:48:19.530Z,6.50
2023-02-16T16:50:48.580Z,6.60
2023-02-16T16:53:43.155Z,6.50
2023-02-16T16:56:13.615Z,6.50
2023-02-16T16:58:43.729Z,6.40
2023-02-16T17:01:13.409Z,6.40
2023-02-16T17:03:41.360Z,6.30
2023-02-16T17:06:09.549Z,6.40
2023-02-16T17:08:37.517Z,6.30
2023-02-16T17:11:06.320Z,6.40
2023-02-16T17:13:34.176Z,6.30
2023-02-16T17:16:06.060Z,6.30
2023-02-16T17:18:34.619Z,6.30
2023-02-16T17:21:02.395Z,6.30
2023-02-16T17:23:30.388Z,6.30
2023-02-16T17:25:58.245Z,6.30
2023-02-16T17:28:26.004Z,6.20
2023-02-16T17:30:53.857Z,6.20
2023-02-16T17:33:22.961Z,6.10
2023-02-16T17:35:50.820Z,6.10
2023-02-16T17:38:21.463Z,6.10
2023-02-16T17:40:49.962Z,6.10
2023-02-16T17:43:18.844Z,6.10
2023-02-16T17:45:47.262Z,6.00
2023-02-16T17:48:17.608Z,6.10
2023-02-16T17:50:47.219Z,6.00
2023-02-16T17:53:15.921Z,6.00
2023-02-16T17:55:44.690Z,6.10
2023-02-16T17:58:13.182Z,6.10
2023-02-16T18:00:41.379Z,6.20
2023-02-16T18:03:09.715Z,6.20
2023-02-16T18:05:38.165Z,6.30
2023-02-16T18:08:07.467Z,6.30
2023-02-16T18:10:38.292Z,6.40
2023-02-16T18:13:06.306Z,6.40
2023-02-16T18:15:34.598Z,6.40
2023-02-16T18:18:02.572Z,6.40
2023-02-16T18:20:30.370Z,6.50
2023-02-16T18:22:58.421Z,6.40
2023-02-16T18:25:27.666Z,6.50
2023-02-16T18:27:55.495Z,6.40
2023-02-16T18:30:23.715Z,6.50
2023-02-16T18:32:52.059Z,6.50
2023-02-16T18:35:20.000Z,6.50
2023-02-16T18:37:48.733Z,6.50
2023-02-16T18:40:19.649Z,6.50
2023-02-16T18:42:49.026Z,6.40
2023-02-16T18:45:17.196Z,6.40
2023-02-16T18:47:45.315Z,6.40
2023-02-16T18:50:13.326Z,6.30
2023-02-16T18:52:43.271Z,6.40
2023-02-16T18:55:11.367Z,6.40
2023-02-16T18:57:39.315Z,6.30
2023-02-16T19:00:12.774Z,6.30
2023-02-16T19:05:16.751Z,6.40
2023-02-16T19:07:44.548Z,6.30
2023-02-16T19:10:12.640Z,6.30
2023-02-16T19:12:41.179Z,6.40
2023-02-16T19:15:10.748Z,6.40
2023-02-16T19:17:38.785Z,6.40
2023-02-16T19:20:09.644Z,6.40
2023-02-16T19:22:38.007Z,6.40
2023-02-16T19:25:06.134Z,6.40
2023-02-16T19:27:34.368Z,6.40
2023-02-16T19:30:02.253Z,6.40
2023-02-16T19:32:31.670Z,6.40
2023-02-16T19:34:59.640Z,6.50
2023-02-16T19:37:27.589Z,6.50
2023-02-16T19:39:55.413Z,6.50
2023-02-16T19:42:23.928Z,6.60
2023-02-16T19:44:51.848Z,6.60
2023-02-16T19:47:20.038Z,6.70
2023-02-16T19:49:49.188Z,6.70
2023-02-16T19:52:17.381Z,6.70
2023-02-16T19:54:45.261Z,6.70
2023-02-16T19:57:13.086Z,6.80
2023-02-16T19:59:40.989Z,6.80
2023-02-16T20:02:10.152Z,6.80
2023-02-16T20:04:37.992Z,6.90
2023-02-16T20:07:08.499Z,6.80
2023-02-16T20:09:37.418Z,6.80
2023-02-16T20:12:05.702Z,6.90
2023-02-16T20:14:33.706Z,6.90
2023-02-16T20:17:01.529Z,6.90
2023-02-16T20:19:29.397Z,6.90
2023-02-16T20:21:57.208Z,6.90
2023-02-16T20:24:26.353Z,6.90
2023-02-16T20:26:54.137Z,6.90
2023-02-16T20:29:22.162Z,7.00
2023-02-16T20:31:52.619Z,7.00
2023-02-16T20:34:20.966Z,6.90
2023-02-16T20:36:49.111Z,7.00
2023-02-16T20:39:17.277Z,7.00
2023-02-16T20:41:46.680Z,6.90
2023-02-16T20:44:14.922Z,6.90
2023-02-16T20:46:42.934Z,6.90
2023-02-16T20:49:10.928Z,6.80
2023-02-16T20:51:41.193Z,6.80
2023-02-16T20:54:09.388Z,6.80
2023-02-16T20:56:37.329Z,6.80
2023-02-16T20:59:06.629Z,6.80
2023-02-16T21:05:41.409Z,6.90
2023-02-16T21:08:09.277Z,6.90
2023-02-16T21:10:37.256Z,6.90
2023-02-16T21:13:05.249Z,6.90
2023-02-16T21:15:34.572Z,6.90
2023-02-16T21:18:02.521Z,7.00
2023-02-16T21:20:30.299Z,7.00
2023-02-16T21:22:58.464Z,7.00
2023-02-16T21:25:26.278Z,7.00
2023-02-16T21:27:54.167Z,7.10
2023-02-16T21:30:22.194Z,7.10
2023-02-16T21:32:51.626Z,7.20
2023-02-16T21:35:19.764Z,7.20
2023-02-16T21:37:47.685Z,7.30
2023-02-16T21:40:32.945Z,7.30
2023-02-16T21:43:00.731Z,7.30
2023-02-16T21:45:28.663Z,7.30
2023-02-16T21:48:15.973Z,7.30
2023-02-16T21:50:43.881Z,7.40
2023-02-16T21:53:11.937Z,7.50
2023-02-16T21:55:57.973Z,7.60
2023-02-16T21:58:27.240Z,7.80
2023-02-16T22:00:56.347Z,8.00
2023-02-16T22:03:26.262Z,8.20
2023-02-16T22:05:54.206Z,8.30
2023-02-16T22:08:22.286Z,8.40
2023-02-16T22:10:50.134Z,8.50
2023-02-16T22:13:18.011Z,8.60
2023-02-16T22:15:45.867Z,8.60
2023-02-16T22:18:13.753Z,8.60
2023-02-16T22:20:43.121Z,8.70
2023-02-16T22:23:12.229Z,8.80
2023-02-16T22:25:40.638Z,8.80
2023-02-16T22:28:08.752Z,8.90
2023-02-16T22:30:37.425Z,8.90
2023-02-16T22:33:05.377Z,8.90
2023-02-16T22:35:34.016Z,8.90
2023-02-16T22:38:03.260Z,8.90
2023-02-16T22:40:31.176Z,9.00
2023-02-16T22:42:58.974Z,8.90
2023-02-16T22:45:26.884Z,9.00
2023-02-16T22:47:54.676Z,9.00
2023-02-16T22:50:22.497Z,8.90
2023-02-16T22:52:50.341Z,8.90
2023-02-16T22:55:19.985Z,9.00
2023-02-16T22:57:47.838Z,8.80
2023-02-16T23:00:17.849Z,8.80
2023-02-16T23:02:45.673Z,8.80
2023-02-16T23:05:13.466Z,8.90
2023-02-16T23:07:41.304Z,8.80
2023-02-16T23:10:09.754Z,8.80
2023-02-16T23:12:38.929Z,8.90
2023-02-16T23:15:07.419Z,8.90
2023-02-16T23:17:49.419Z,8.90
2023-02-16T23:20:17.387Z,8.90
2023-02-16T23:22:45.223Z,8.90
2023-02-16T23:25:30.734Z,9.00
2023-02-16T23:28:00.230Z,9.10
2023-02-16T23:30:28.153Z,9.10
2023-02-16T23:32:56.097Z,9.20
2023-02-16T23:35:23.954Z,9.30
2023-02-16T23:37:51.799Z,9.40
2023-02-16T23:40:19.993Z,9.50
2023-02-16T23:42:47.801Z,9.50
2023-02-16T23:45:17.032Z,9.50
2023-02-16T23:47:44.894Z,9.50
2023-02-16T23:50:12.856Z,9.60
2023-02-16T23:52:40.775Z,9.60
2023-02-16T23:55:09.143Z,9.70
2023-02-16T23:57:37.030Z,9.80
